Time;durP1;ratioP1;P1;durP2;ratioP2;P2;SDS_P1;SDS_P2;PMS_P1;PMS_P2;Temp;Humidity;BMP_temperature;BMP_pressure;BME280_temperature;BME280_humidity;BME280_pressure;Samples;Min_cycle;Max_cycle;Signal;HPM_P1;HPM_P2
2023/12/12 00:01:12;;;;;;;3.25;1.50;;;23.50;55.10;;;;;;3108398;28;20053;-46
2023/12/12 00:02:44;;;;;;;2.03;1.45;;;23.50;55.00;;;;;;3110121;28;20133;-46
2023/12/12 00:04:16;;;;;;;2.50;1.50;;;23.50;55.20;;;;;;3109181;28;20408;-44
2023/12/12 00:05:46;;;;;;;2.00;1.40;;;23.40;55.20;;;;;;3110414;28;20099;-47
2023/12/12 00:07:19;;;;;;;2.45;1.30;;;23.50;55.10;;;;;;3110366;28;20288;-42
2023/12/12 00:08:50;;;;;;;2.47;1.40;;;23.40;55.10;;;;;;3108674;28;20081;-44
2023/12/12 00:10:21;;;;;;;1.77;1.13;;;23.50;55.00;;;;;;3111387;28;20068;-43
2023/12/12 00:11:54;;;;;;;1.50;1.20;;;23.50;54.70;;;;;;3111075;28;20481;-46
2023/12/12 00:13:25;;;;;;;1.70;1.30;;;23.50;54.80;;;;;;3111159;28;20053;-43
2023/12/12 00:14:56;;;;;;;1.98;1.33;;;23.50;54.70;;;;;;3110643;28;20080;-45
2023/12/12 00:16:28;;;;;;;1.77;1.42;;;23.50;54.60;;;;;;3110174;28;20050;-43
2023/12/12 00:17:58;;;;;;;1.48;1.38;;;23.50;54.40;;;;;;3110604;28;20058;-47
2023/12/12 00:19:30;;;;;;;2.20;1.38;;;23.60;54.20;;;;;;3112220;28;20460;-43
2023/12/12 00:21:01;;;;;;;2.08;1.40;;;23.50;54.10;;;;;;3111137;28;20061;-45
2023/12/12 00:22:34;;;;;;;3.10;1.40;;;23.60;54.10;;;;;;3110972;28;20042;-45
2023/12/12 00:24:04;;;;;;;2.33;1.60;;;23.50;54.30;;;;;;3110973;28;20504;-49
2023/12/12 00:25:36;;;;;;;2.35;1.55;;;23.40;54.50;;;;;;3111035;28;20057;-47
2023/12/12 00:27:07;;;;;;;1.98;1.40;;;23.30;54.50;;;;;;3109810;28;20125;-46
2023/12/12 00:28:38;;;;;;;2.35;1.30;;;23.40;55.00;;;;;;3111122;28;20054;-43
2023/12/12 00:30:09;;;;;;;1.83;1.30;;;23.40;54.30;;;;;;3110886;28;20216;-44
2023/12/12 00:31:41;;;;;;;2.53;1.60;;;23.30;54.50;;;;;;3107477;28;20038;-43
2023/12/12 00:33:11;;;;;;;1.63;1.30;;;23.40;54.50;;;;;;3110850;28;20084;-43
2023/12/12 00:34:43;;;;;;;1.60;1.40;;;23.30;54.40;;;;;;3110853;28;20045;-43
2023/12/12 00:36:15;;;;;;;2.13;1.50;;;23.30;54.50;;;;;;3110084;28;20137;-43
2023/12/12 00:37:47;;;;;;;1.55;1.15;;;23.30;54.60;;;;;;3106728;28;20130;-46
2023/12/12 00:39:18;;;;;;;1.67;1.30;;;23.30;54.40;;;;;;3108001;28;20146;-43
2023/12/12 00:40:53;;;;;;;2.17;1.35;;;23.30;54.40;;;;;;3109257;28;20424;-43
2023/12/12 00:42:23;;;;;;;1.45;1.20;;;23.30;54.30;;;;;;3110465;28;20057;-44
2023/12/12 00:43:55;;;;;;;3.85;1.52;;;23.20;54.30;;;;;;3110448;28;20424;-43
2023/12/12 00:45:25;;;;;;;1.33;1.20;;;23.30;54.30;;;;;;3108481;28;20128;-46
2023/12/12 00:46:57;;;;;;;1.80;1.50;;;23.30;54.20;;;;;;3110104;28;20042;-43
2023/12/12 00:48:28;;;;;;;1.98;1.20;;;23.20;54.30;;;;;;3110730;28;20137;-43
2023/12/12 00:49:59;;;;;;;1.95;1.42;;;23.10;54.30;;;;;;3110821;28;20054;-44
2023/12/12 00:51:30;;;;;;;2.05;1.45;;;23.10;55.00;;;;;;3110593;28;20078;-44
2023/12/12 00:53:03;;;;;;;2.30;1.48;;;23.10;54.40;;;;;;3110545;28;20507;-43
2023/12/12 00:54:34;;;;;;;2.60;1.52;;;23.00;54.60;;;;;;3109503;28;20050;-45
2023/12/12 00:56:06;;;;;;;2.03;1.40;;;23.10;54.60;;;;;;3108466;28;20161;-43
2023/12/12 00:57:37;;;;;;;2.25;1.20;;;23.00;54.60;;;;;;3108914;28;20088;-43
2023/12/12 00:59:08;;;;;;;2.13;1.70;;;23.00;54.60;;;;;;3110352;28;20053;-43
2023/12/12 01:00:39;;;;;;;2.10;1.40;;;22.90;54.60;;;;;;3110254;28;20054;-44
2023/12/12 01:02:11;;;;;;;2.17;1.60;;;22.90;54.60;;;;;;3110457;28;20124;-44
2023/12/12 01:03:41;;;;;;;2.63;1.50;;;22.90;54.60;;;;;;3110817;28;20388;-43
2023/12/12 01:05:13;;;;;;;2.05;1.40;;;22.90;54.70;;;;;;3109014;28;20136;-46
2023/12/12 01:06:44;;;;;;;2.30;1.33;;;22.80;54.70;;;;;;3110056;28;20046;-47
2023/12/12 01:08:17;;;;;;;1.40;1.25;;;22.90;54.40;;;;;;3108753;28;20056;-44
2023/12/12 01:09:47;;;;;;;2.53;1.35;;;22.90;54.60;;;;;;3109332;28;20141;-43
2023/12/12 01:11:19;;;;;;;1.52;1.38;;;23.00;54.30;;;;;;3108759;28;20400;-44
2023/12/12 01:12:50;;;;;;;1.52;1.23;;;23.00;54.20;;;;;;3110376;28;20134;-43
2023/12/12 01:14:21;;;;;;;1.70;1.50;;;23.00;54.30;;;;;;3110651;28;20041;-47
2023/12/12 01:15:52;;;;;;;1.77;1.30;;;22.90;54.30;;;;;;3108713;28;20488;-44
2023/12/12 01:17:23;;;;;;;2.63;1.42;;;22.80;54.50;;;;;;3109302;28;20034;-48
2023/12/12 01:18:54;;;;;;;1.90;1.30;;;22.80;54.50;;;;;;3110248;28;20129;-44
2023/12/12 01:20:26;;;;;;;2.00;1.48;;;22.70;54.50;;;;;;3110527;28;20041;-46
2023/12/12 01:21:56;;;;;;;1.98;1.48;;;22.90;54.20;;;;;;3109335;28;20081;-43
2023/12/12 01:23:46;;;;;;;1.85;1.35;;;22.90;54.10;;;;;;3110012;28;20822;-45
2023/12/12 01:25:17;;;;;;;1.95;1.30;;;23.00;54.00;;;;;;3108737;28;20085;-48
2023/12/12 01:26:48;;;;;;;1.80;1.40;;;23.00;54.00;;;;;;3108174;28;20419;-44
2023/12/12 01:28:19;;;;;;;1.60;1.27;;;22.80;53.90;;;;;;3109972;28;20107;-46
2023/12/12 01:29:50;;;;;;;2.05;1.45;;;22.80;54.10;;;;;;3110384;28;20041;-45
2023/12/12 01:31:21;;;;;;;1.83;1.30;;;22.80;54.10;;;;;;3108819;28;20153;-45
2023/12/12 01:32:53;;;;;;;2.00;1.48;;;22.70;54.30;;;;;;3110134;28;20042;-43
2023/12/12 01:34:23;;;;;;;1.20;1.10;;;22.80;54.20;;;;;;3109644;28;20129;-47
2023/12/12 01:35:55;;;;;;;1.60;1.30;;;22.70;54.20;;;;;;3110232;28;20045;-44
2023/12/12 01:37:25;;;;;;;1.92;1.40;;;22.80;54.30;;;;;;3109735;28;20126;-45
2023/12/12 01:38:58;;;;;;;1.67;1.27;;;22.80;54.10;;;;;;3110252;28;20046;-43
2023/12/12 01:40:30;;;;;;;1.83;1.23;;;22.80;53.90;;;;;;3108939;28;20473;-43
2023/12/12 01:42:00;;;;;;;1.70;1.40;;;22.70;54.30;;;;;;3109797;28;20452;-43
2023/12/12 01:43:33;;;;;;;1.73;1.33;;;22.70;54.90;;;;;;3108781;28;20052;-43
2023/12/12 01:45:05;;;;;;;1.35;1.25;;;22.80;53.70;;;;;;3108724;28;20050;-47
2023/12/12 01:46:36;;;;;;;2.97;1.50;;;22.70;53.80;;;;;;3109373;28;20694;-43
2023/12/12 01:48:07;;;;;;;1.58;1.15;;;22.70;53.90;;;;;;3108784;28;20042;-42
2023/12/12 01:49:38;;;;;;;1.60;1.40;;;22.70;54.20;;;;;;3110326;28;20412;-43
2023/12/12 01:51:09;;;;;;;1.55;1.30;;;22.70;54.00;;;;;;3109844;28;20136;-44
2023/12/12 01:52:41;;;;;;;1.40;1.30;;;22.70;54.00;;;;;;3109956;28;20408;-43
2023/12/12 01:54:13;;;;;;;1.83;1.35;;;22.70;54.10;;;;;;3109981;28;20077;-43
2023/12/12 01:55:44;;;;;;;1.70;1.40;;;22.70;54.10;;;;;;3110362;28;20488;-43
2023/12/12 01:57:15;;;;;;;2.25;1.60;;;22.70;54.00;;;;;;3109586;28;20141;-45
2023/12/12 01:58:49;;;;;;;1.85;1.40;;;22.70;54.00;;;;;;3109919;28;20048;-48
2023/12/12 02:00:20;;;;;;;1.35;1.10;;;22.50;54.30;;;;;;3109866;28;20160;-44
2023/12/12 02:01:51;;;;;;;1.42;1.13;;;22.60;54.30;;;;;;3110110;28;20141;-48
2023/12/12 02:03:22;;;;;;;1.37;1.27;;;22.50;54.40;;;;;;3110003;28;20137;-43
2023/12/12 02:04:54;;;;;;;1.10;1.00;;;22.50;54.40;;;;;;3109595;28;20049;-43
2023/12/12 02:06:24;;;;;;;5.40;1.30;;;22.50;54.30;;;;;;3106871;28;20125;-48
2023/12/12 02:07:56;;;;;;;1.83;1.40;;;22.40;54.50;;;;;;3109426;28;20046;-43
2023/12/12 02:09:29;;;;;;;2.00;1.17;;;22.40;54.40;;;;;;3109665;28;20077;-44
2023/12/12 02:11:00;;;;;;;1.50;1.20;;;22.50;54.40;;;;;;3109950;28;20058;-43
2023/12/12 02:12:31;;;;;;;1.25;1.15;;;22.50;54.50;;;;;;3110021;28;20081;-44
2023/12/12 02:14:02;;;;;;;1.40;1.20;;;22.50;55.10;;;;;;3109486;28;20136;-43
2023/12/12 02:15:34;;;;;;;1.20;1.10;;;22.50;54.30;;;;;;3109968;28;20382;-43
2023/12/12 02:17:05;;;;;;;1.63;1.27;;;22.60;54.00;;;;;;3109431;28;20054;-43
2023/12/12 02:18:37;;;;;;;1.52;1.42;;;22.70;53.90;;;;;;3110072;28;20125;-45
2023/12/12 02:20:08;;;;;;;1.40;1.25;;;22.50;54.10;;;;;;3110066;28;20543;-45
2023/12/12 02:21:41;;;;;;;1.65;1.17;;;22.50;54.20;;;;;;3109745;28;20505;-47
2023/12/12 02:23:12;;;;;;;1.20;1.10;;;22.70;53.90;;;;;;3109697;28;20559;-45
2023/12/12 02:24:43;;;;;;;1.55;1.30;;;22.70;53.60;;;;;;3110051;28;20055;-43
2023/12/12 02:26:14;;;;;;;2.42;1.42;;;22.70;53.60;;;;;;3109281;28;20478;-45
2023/12/12 02:27:45;;;;;;;1.38;1.20;;;22.70;53.80;;;;;;3109485;28;20042;-43
2023/12/12 02:29:17;;;;;;;1.20;1.10;;;22.70;53.60;;;;;;3109964;28;20500;-42
2023/12/12 02:30:47;;;;;;;1.50;1.25;;;22.70;53.60;;;;;;3109706;28;20528;-50
2023/12/12 02:32:19;;;;;;;1.50;1.10;;;22.70;53.50;;;;;;3109670;28;20041;-44
2023/12/12 02:33:51;;;;;;;1.52;1.08;;;22.80;53.40;;;;;;3108352;28;20081;-46
2023/12/12 02:35:22;;;;;;;1.35;1.00;;;22.80;53.40;;;;;;3109953;28;20112;-48
2023/12/12 02:36:55;;;;;;;1.17;1.08;;;22.70;53.50;;;;;;3109169;28;20049;-44
2023/12/12 02:38:25;;;;;;;2.10;1.30;;;22.60;53.70;;;;;;3109825;28;20124;-42
2023/12/12 02:39:57;;;;;;;1.38;1.20;;;22.70;53.50;;;;;;3109811;28;20050;-48
2023/12/12 02:41:28;;;;;;;1.13;1.02;;;22.70;53.60;;;;;;3108491;28;20073;-43
2023/12/12 02:42:59;;;;;;;1.45;1.15;;;22.70;53.60;;;;;;3108556;28;20057;-48
2023/12/12 02:44:31;;;;;;;1.27;1.10;;;22.80;53.90;;;;;;3109621;28;20049;-43
2023/12/12 02:46:01;;;;;;;1.17;1.05;;;22.80;53.20;;;;;;3109997;28;20133;-42
2023/12/12 02:47:33;;;;;;;1.25;1.10;;;22.90;53.00;;;;;;3109316;28;20046;-43
2023/12/12 02:49:05;;;;;;;1.05;0.95;;;22.90;53.00;;;;;;3109795;28;20153;-43
2023/12/12 02:50:36;;;;;;;2.42;1.20;;;22.80;53.20;;;;;;3107540;28;20583;-42
2023/12/12 02:52:09;;;;;;;1.80;1.10;;;22.80;53.20;;;;;;3109567;28;20050;-46
2023/12/12 02:53:39;;;;;;;1.10;1.00;;;22.80;53.20;;;;;;3109695;28;20535;-43
2023/12/12 02:55:11;;;;;;;1.67;1.25;;;22.90;52.80;;;;;;3109580;28;20049;-43
2023/12/12 02:56:42;;;;;;;1.30;1.20;;;22.80;52.80;;;;;;3108293;28;20129;-44
2023/12/12 02:58:13;;;;;;;1.25;1.00;;;22.70;53.10;;;;;;3109608;28;20045;-43
2023/12/12 02:59:44;;;;;;;1.10;1.00;;;22.80;53.10;;;;;;3107613;28;20074;-43
2023/12/12 03:01:15;;;;;;;1.20;1.10;;;22.70;53.00;;;;;;3109325;28;20053;-44
2023/12/12 03:02:46;;;;;;;1.48;1.30;;;22.70;53.10;;;;;;3109554;28;20500;-44
2023/12/12 03:04:17;;;;;;;1.30;1.20;;;22.70;53.10;;;;;;3108359;28;20042;-43
2023/12/12 03:05:48;;;;;;;1.17;1.08;;;22.50;53.40;;;;;;3109226;28;20128;-44
2023/12/12 03:07:21;;;;;;;1.38;1.25;;;22.50;53.50;;;;;;3108826;28;20042;-47
2023/12/12 03:08:52;;;;;;;1.38;1.20;;;22.50;53.60;;;;;;3109520;28;20136;-43
2023/12/12 03:10:23;;;;;;;1.20;1.10;;;22.50;53.40;;;;;;3109547;28;20042;-45
2023/12/12 03:11:55;;;;;;;1.25;0.98;;;22.50;53.40;;;;;;3109343;28;20073;-44
2023/12/12 03:13:27;;;;;;;1.40;1.30;;;22.40;53.50;;;;;;3106858;28;20092;-43
2023/12/12 03:14:57;;;;;;;2.10;1.30;;;22.50;53.40;;;;;;3109703;28;20137;-46
2023/12/12 03:16:29;;;;;;;1.80;1.35;;;22.50;53.30;;;;;;3109068;28;20046;-43
2023/12/12 03:18:00;;;;;;;1.33;1.10;;;22.30;53.60;;;;;;3108806;28;20133;-45
2023/12/12 03:19:31;;;;;;;1.30;1.10;;;22.20;53.90;;;;;;3107965;28;20503;-44
2023/12/12 03:21:03;;;;;;;1.27;1.13;;;22.30;53.90;;;;;;3111949;28;20172;-45
2023/12/12 03:22:35;;;;;;;1.60;1.20;;;22.30;53.80;;;;;;3111019;28;20076;-42
2023/12/12 03:24:06;;;;;;;1.45;1.10;;;22.40;53.50;;;;;;3111606;28;20103;-43
2023/12/12 03:25:37;;;;;;;1.30;1.20;;;22.40;53.40;;;;;;3111767;28;20115;-42
2023/12/12 03:27:09;;;;;;;1.58;1.27;;;22.40;53.30;;;;;;3111346;28;20500;-46
2023/12/12 03:28:39;;;;;;;1.27;1.17;;;22.40;53.30;;;;;;3111642;28;20049;-45
2023/12/12 03:30:11;;;;;;;1.80;1.60;;;22.40;53.40;;;;;;3111708;28;21582;-49
2023/12/12 03:31:42;;;;;;;1.58;1.48;;;22.40;53.40;;;;;;3111770;28;20084;-46
2023/12/12 03:33:14;;;;;;;1.85;1.40;;;22.30;53.50;;;;;;3111359;28;20042;-47
2023/12/12 03:34:44;;;;;;;1.73;1.40;;;22.30;53.60;;;;;;3111678;28;20128;-45
2023/12/12 03:36:16;;;;;;;1.42;1.25;;;22.30;53.60;;;;;;3111411;28;20045;-43
2023/12/12 03:37:48;;;;;;;3.45;1.30;;;22.20;53.60;;;;;;3107979;28;20125;-45
2023/12/12 03:39:19;;;;;;;1.33;1.23;;;22.10;53.80;;;;;;3111454;28;20408;-46
2023/12/12 03:40:50;;;;;;;2.05;1.50;;;22.10;53.80;;;;;;3111574;28;20482;-43
2023/12/12 03:42:21;;;;;;;1.55;1.45;;;22.20;53.70;;;;;;3110941;28;20042;-52
2023/12/12 03:43:52;;;;;;;1.40;1.30;;;22.10;53.60;;;;;;3108527;28;20064;-42
2023/12/12 03:45:24;;;;;;;1.67;1.50;;;22.20;53.60;;;;;;3110851;28;20057;-46
2023/12/12 03:46:54;;;;;;;1.50;1.40;;;22.20;53.50;;;;;;3111046;28;20938;-44
2023/12/12 03:48:26;;;;;;;1.67;1.35;;;22.20;53.40;;;;;;3111549;28;20042;-47
2023/12/12 03:49:56;;;;;;;2.63;1.30;;;22.20;53.20;;;;;;3111439;28;20077;-42
2023/12/12 03:51:28;;;;;;;2.25;1.48;;;22.30;53.30;;;;;;3110799;28;20072;-46
2023/12/12 03:53:00;;;;;;;1.50;1.33;;;22.20;53.20;;;;;;3111041;28;20141;-43
2023/12/12 03:54:32;;;;;;;1.50;1.40;;;22.20;53.30;;;;;;3111555;28;20104;-43
2023/12/12 03:56:03;;;;;;;1.40;1.20;;;22.10;53.50;;;;;;3110335;28;20152;-43
2023/12/12 03:57:35;;;;;;;1.42;1.33;;;22.20;53.40;;;;;;3111115;28;20084;-45
2023/12/12 03:59:05;;;;;;;3.80;1.65;;;22.20;53.20;;;;;;3111290;28;20137;-47
2023/12/12 04:00:37;;;;;;;1.55;1.30;;;22.10;53.30;;;;;;3110435;28;20050;-44
2023/12/12 04:02:09;;;;;;;1.40;1.30;;;22.10;53.40;;;;;;3108582;28;20152;-44
2023/12/12 04:03:39;;;;;;;1.55;1.45;;;22.30;53.30;;;;;;3109523;28;20149;-44
2023/12/12 04:05:11;;;;;;;2.00;1.60;;;22.50;53.00;;;;;;3109192;28;20054;-43
2023/12/12 04:06:45;;;;;;;1.50;1.40;;;22.70;52.70;;;;;;3110990;28;20156;-45
2023/12/12 04:08:18;;;;;;;1.50;1.40;;;22.70;52.60;;;;;;3110245;28;20042;-46
2023/12/12 04:09:49;;;;;;;1.38;1.25;;;22.80;52.60;;;;;;3111159;28;20111;-43
2023/12/12 04:11:20;;;;;;;1.33;1.23;;;23.00;52.20;;;;;;3111332;28;20077;-43
2023/12/12 04:12:51;;;;;;;1.50;1.40;;;23.10;51.90;;;;;;3110995;28;20563;-43
2023/12/12 04:14:22;;;;;;;1.38;1.27;;;23.30;51.70;;;;;;3111192;28;20046;-42
2023/12/12 04:15:53;;;;;;;1.95;1.48;;;23.20;51.70;;;;;;3109017;28;20137;-44
2023/12/12 04:17:24;;;;;;;1.40;1.30;;;23.30;51.70;;;;;;3110936;28;20047;-43
2023/12/12 04:18:55;;;;;;;1.55;1.30;;;23.40;51.60;;;;;;3110897;28;20089;-44
2023/12/12 04:20:27;;;;;;;1.30;1.20;;;23.50;51.40;;;;;;3111138;28;20424;-43
2023/12/12 04:21:57;;;;;;;1.88;1.60;;;23.60;51.90;;;;;;3109526;28;20054;-44
2023/12/12 04:23:30;;;;;;;1.50;1.40;;;23.60;51.20;;;;;;3110089;28;20091;-42
2023/12/12 04:25:01;;;;;;;1.60;1.50;;;23.60;51.10;;;;;;3110886;28;20137;-45
2023/12/12 04:26:32;;;;;;;1.35;1.10;;;23.70;51.10;;;;;;3110909;28;20559;-43
2023/12/12 04:28:03;;;;;;;1.55;1.40;;;23.80;51.10;;;;;;3111070;28;20134;-43
2023/12/12 04:29:35;;;;;;;1.55;1.45;;;23.80;50.90;;;;;;3110934;28;20045;-44
2023/12/12 04:31:05;;;;;;;1.55;1.38;;;23.80;50.80;;;;;;3110412;28;20093;-43
2023/12/12 04:32:37;;;;;;;1.40;1.30;;;23.90;50.70;;;;;;3110071;28;20512;-43
2023/12/12 04:34:09;;;;;;;1.57;1.47;;;23.90;50.60;;;;;;3110958;28;20492;-44
2023/12/12 04:35:41;;;;;;;1.70;1.60;;;23.90;50.70;;;;;;3111103;28;20049;-44
2023/12/12 04:37:13;;;;;;;1.48;1.23;;;24.00;50.50;;;;;;3109357;28;20129;-43
2023/12/12 04:38:44;;;;;;;2.13;1.50;;;24.00;50.50;;;;;;3110876;28;20084;-43
2023/12/12 04:40:16;;;;;;;1.48;1.38;;;24.00;50.50;;;;;;3111053;28;20050;-46
2023/12/12 04:41:47;;;;;;;1.77;1.40;;;24.00;50.40;;;;;;3110230;28;20168;-50
2023/12/12 04:43:18;;;;;;;1.60;1.50;;;24.00;50.30;;;;;;3110286;28;20045;-45
2023/12/12 04:44:50;;;;;;;1.55;1.45;;;24.10;50.30;;;;;;3110584;28;20137;-50
2023/12/12 04:46:22;;;;;;;1.50;1.40;;;24.10;50.20;;;;;;3110313;28;20046;-43
2023/12/12 04:47:52;;;;;;;1.30;1.20;;;24.10;50.10;;;;;;3110398;28;20129;-43
2023/12/12 04:49:24;;;;;;;1.63;1.52;;;24.20;50.00;;;;;;3110791;28;20042;-43
2023/12/12 04:50:55;;;;;;;1.23;1.13;;;24.10;50.00;;;;;;3109499;28;20136;-43
2023/12/12 04:52:26;;;;;;;1.40;1.30;;;24.10;50.10;;;;;;3110404;28;20038;-44
2023/12/12 04:53:58;;;;;;;1.50;1.40;;;24.10;50.90;;;;;;3110608;28;20089;-43
2023/12/12 04:55:30;;;;;;;1.50;1.40;;;24.10;50.30;;;;;;3110759;28;20056;-43
2023/12/12 04:57:00;;;;;;;1.58;1.48;;;24.10;50.10;;;;;;3110182;28;20136;-43
2023/12/12 04:58:32;;;;;;;1.58;1.48;;;24.10;50.10;;;;;;3110633;28;20399;-43
2023/12/12 05:00:03;;;;;;;1.85;1.60;;;24.10;50.20;;;;;;3108734;28;20483;-45
2023/12/12 05:01:35;;;;;;;1.50;1.40;;;24.10;50.40;;;;;;3110199;28;20381;-48
2023/12/12 05:03:05;;;;;;;1.65;1.40;;;24.20;50.10;;;;;;3108048;28;20050;-43
2023/12/12 05:04:37;;;;;;;1.77;1.60;;;24.20;50.00;;;;;;3110036;28;20042;-46
2023/12/12 05:06:09;;;;;;;1.88;1.50;;;24.20;50.50;;;;;;3109996;28;20055;-46
2023/12/12 05:07:40;;;;;;;1.40;1.30;;;24.20;49.90;;;;;;3107117;28;20045;-44
2023/12/12 05:09:13;;;;;;;3.25;1.40;;;24.10;50.00;;;;;;3109220;28;20053;-44
2023/12/12 05:10:44;;;;;;;2.05;1.52;;;24.10;50.30;;;;;;3110375;28;20045;-45
2023/12/12 05:12:15;;;;;;;2.03;1.83;;;24.00;50.30;;;;;;3110239;28;20061;-45
2023/12/12 05:13:46;;;;;;;2.17;1.70;;;24.00;50.30;;;;;;3110459;28;20499;-43
2023/12/12 05:15:18;;;;;;;1.88;1.65;;;24.00;50.30;;;;;;3109220;28;20038;-47
2023/12/12 05:16:49;;;;;;;1.90;1.70;;;24.00;50.40;;;;;;3108202;28;20049;-48
2023/12/12 05:18:21;;;;;;;1.40;1.30;;;23.90;50.50;;;;;;3109016;28;20722;-43
2023/12/12 05:19:53;;;;;;;1.50;1.40;;;23.90;50.40;;;;;;3109288;28;20054;-46
2023/12/12 05:21:25;;;;;;;1.70;1.60;;;23.90;50.50;;;;;;3110200;28;20053;-43
2023/12/12 05:22:56;;;;;;;1.80;1.70;;;24.00;50.50;;;;;;3110262;28;20503;-44
2023/12/12 05:24:29;;;;;;;1.83;1.60;;;24.10;50.30;;;;;;3110427;28;20042;-48
2023/12/12 05:26:00;;;;;;;3.22;1.60;;;24.10;50.10;;;;;;3109728;28;20045;-44
2023/12/12 05:27:35;;;;;;;2.58;1.40;;;24.10;50.10;;;;;;3109036;28;20046;-44
2023/12/12 05:29:05;;;;;;;1.58;1.45;;;24.20;50.00;;;;;;3108335;28;20492;-45
2023/12/12 05:30:37;;;;;;;1.58;1.48;;;24.20;49.90;;;;;;3110256;28;20042;-43
2023/12/12 05:32:09;;;;;;;1.45;1.35;;;24.20;49.90;;;;;;3110093;28;20050;-43
2023/12/12 05:33:40;;;;;;;1.75;1.45;;;24.30;50.00;;;;;;3109577;28;20081;-46
2023/12/12 05:35:11;;;;;;;1.52;1.42;;;24.30;50.00;;;;;;3110537;28;20046;-46
2023/12/12 05:36:42;;;;;;;2.03;1.30;;;24.30;49.90;;;;;;3110037;28;20081;-46
2023/12/12 05:38:14;;;;;;;1.73;1.60;;;24.30;49.80;;;;;;3110031;28;20053;-43
2023/12/12 05:39:46;;;;;;;1.40;1.30;;;24.30;49.90;;;;;;3110414;28;20103;-43
2023/12/12 05:41:17;;;;;;;1.60;1.50;;;24.30;50.00;;;;;;3110175;28;20152;-43
2023/12/12 05:42:48;;;;;;;1.60;1.45;;;24.30;50.10;;;;;;3109402;28;20109;-43
2023/12/12 05:44:20;;;;;;;1.60;1.48;;;24.30;50.10;;;;;;3109816;28;20417;-43
2023/12/12 05:45:50;;;;;;;2.10;1.45;;;24.30;50.20;;;;;;3109713;28;20088;-46
2023/12/12 05:47:22;;;;;;;2.00;1.60;;;24.30;50.00;;;;;;3109420;28;20057;-43
2023/12/12 05:48:54;;;;;;;1.50;1.40;;;24.40;49.90;;;;;;3110141;28;20078;-45
2023/12/12 05:50:24;;;;;;;1.40;1.30;;;24.40;49.90;;;;;;3109212;28;20068;-44
2023/12/12 05:51:56;;;;;;;1.70;1.60;;;24.30;49.90;;;;;;3109758;28;20076;-42
2023/12/12 05:53:26;;;;;;;1.65;1.55;;;24.30;50.10;;;;;;3107509;28;20049;-43
2023/12/12 05:54:59;;;;;;;1.77;1.67;;;24.30;50.30;;;;;;3109187;28;20054;-43
2023/12/12 05:56:31;;;;;;;1.40;1.30;;;24.20;50.40;;;;;;3109962;28;20495;-49
2023/12/12 05:58:04;;;;;;;1.70;1.60;;;24.20;50.40;;;;;;3109873;28;20527;-43
2023/12/12 05:59:35;;;;;;;1.48;1.38;;;24.30;50.40;;;;;;3109313;28;20058;-43
2023/12/12 06:01:06;;;;;;;1.65;1.55;;;24.30;50.30;;;;;;3109066;28;20373;-43
2023/12/12 06:02:37;;;;;;;1.53;1.43;;;24.10;50.40;;;;;;3109882;28;20065;-42
2023/12/12 06:04:11;;;;;;;1.85;1.48;;;24.20;50.40;;;;;;3109657;28;20293;-43
2023/12/12 06:05:43;;;;;;;1.50;1.40;;;24.10;50.30;;;;;;3109417;28;20128;-42
2023/12/12 06:07:14;;;;;;;1.73;1.60;;;24.00;51.20;;;;;;3109093;28;20056;-42
2023/12/12 06:08:45;;;;;;;1.90;1.70;;;24.00;50.70;;;;;;3108313;28;20053;-44
2023/12/12 06:10:18;;;;;;;1.50;1.40;;;23.90;50.80;;;;;;3107713;28;20042;-42
2023/12/12 06:11:49;;;;;;;1.92;1.75;;;23.80;51.00;;;;;;3106348;28;20124;-43
2023/12/12 06:13:20;;;;;;;1.58;1.48;;;23.80;51.10;;;;;;3106433;28;20049;-44
2023/12/12 06:14:51;;;;;;;1.65;1.40;;;23.80;51.00;;;;;;3109436;28;20049;-47
2023/12/12 06:16:22;;;;;;;1.70;1.60;;;23.80;51.10;;;;;;3108360;28;20053;-43
2023/12/12 06:17:53;;;;;;;1.95;1.75;;;23.70;51.20;;;;;;3109574;28;20088;-44
2023/12/12 06:19:25;;;;;;;3.70;1.45;;;23.80;51.20;;;;;;3109995;28;20473;-43
2023/12/12 06:20:56;;;;;;;1.70;1.60;;;23.60;51.40;;;;;;3109442;28;20060;-45
2023/12/12 06:22:27;;;;;;;1.70;1.60;;;23.60;51.40;;;;;;3107722;28;20053;-42
2023/12/12 06:23:59;;;;;;;1.77;1.60;;;23.70;51.50;;;;;;3109436;28;20479;-45
2023/12/12 06:25:32;;;;;;;1.80;1.60;;;23.70;51.50;;;;;;3108517;28;20129;-45
2023/12/12 06:27:02;;;;;;;1.65;1.55;;;23.60;51.60;;;;;;3105791;28;20488;-42
2023/12/12 06:28:34;;;;;;;2.08;1.88;;;23.60;51.70;;;;;;3108698;28;20042;-43
2023/12/12 06:30:07;;;;;;;1.75;1.63;;;23.60;51.60;;;;;;3108470;28;20124;-43
2023/12/12 06:31:39;;;;;;;2.03;1.80;;;23.60;51.70;;;;;;3108226;28;20045;-46
2023/12/12 06:33:09;;;;;;;3.33;1.65;;;23.60;51.70;;;;;;3106537;28;20539;-43
2023/12/12 06:34:43;;;;;;;3.40;1.75;;;23.70;51.50;;;;;;3106891;28;20053;-44
2023/12/12 06:36:14;;;;;;;2.85;1.92;;;23.70;51.40;;;;;;3104153;28;20073;-44
2023/12/12 06:37:46;;;;;;;2.38;1.60;;;23.60;51.50;;;;;;3108789;28;20481;-44
2023/12/12 06:39:17;;;;;;;2.28;1.63;;;23.70;51.60;;;;;;3108171;28;20042;-46
2023/12/12 06:40:49;;;;;;;2.08;1.50;;;23.60;51.60;;;;;;3109195;28;20060;-45
2023/12/12 06:42:21;;;;;;;3.25;1.52;;;23.60;51.70;;;;;;3107712;28;20052;-46
2023/12/12 06:43:52;;;;;;;1.70;1.60;;;23.70;51.50;;;;;;3108798;28;20072;-46
2023/12/12 06:45:23;;;;;;;3.00;1.70;;;23.90;51.10;;;;;;3108467;28;20054;-47
2023/12/12 06:46:54;;;;;;;2.03;1.80;;;24.00;51.00;;;;;;3108661;28;20048;-46
2023/12/12 06:48:25;;;;;;;2.45;1.70;;;23.90;51.00;;;;;;3107752;28;20038;-44
2023/12/12 06:49:57;;;;;;;2.08;1.58;;;23.80;51.10;;;;;;3109235;28;20049;-43
2023/12/12 06:51:28;;;;;;;6.95;1.80;;;23.90;51.10;;;;;;3109028;28;20551;-43
2023/12/12 06:53:00;;;;;;;3.70;1.65;;;23.90;51.30;;;;;;3106791;28;20041;-46
2023/12/12 06:54:31;;;;;;;5.80;1.60;;;23.80;51.20;;;;;;3110430;28;20432;-46
2023/12/12 06:56:05;;;;;;;3.45;1.98;;;23.90;51.20;;;;;;3110048;28;20049;-43
2023/12/12 06:57:37;;;;;;;2.10;1.42;;;24.00;51.00;;;;;;3110516;28;20054;-43
2023/12/12 06:59:08;;;;;;;1.98;1.60;;;24.00;50.90;;;;;;3111905;28;20057;-45
2023/12/12 07:00:42;;;;;;;4.75;1.88;;;24.00;50.90;;;;;;3110563;28;20045;-43
2023/12/12 07:02:14;;;;;;;5.65;2.30;;;23.90;51.30;;;;;;3108399;28;20132;-46
2023/12/12 07:03:45;;;;;;;5.25;1.85;;;23.70;51.20;;;;;;3110101;28;20420;-43
2023/12/12 07:05:16;;;;;;;5.63;2.00;;;23.80;51.40;;;;;;3111999;28;20057;-43
2023/12/12 07:06:48;;;;;;;3.33;2.00;;;23.80;51.60;;;;;;3110470;28;20050;-45
2023/12/12 07:08:18;;;;;;;8.35;2.20;;;23.60;52.00;;;;;;3111287;28;20073;-43
2023/12/12 07:09:51;;;;;;;5.28;2.30;;;23.50;52.30;;;;;;3111887;28;20045;-47
2023/12/12 07:11:23;;;;;;;10.32;2.63;;;23.40;52.60;;;;;;3110418;28;20050;-43
2023/12/12 07:12:55;;;;;;;5.20;2.20;;;23.40;52.50;;;;;;3111198;28;20745;-43
2023/12/12 07:14:25;;;;;;;4.10;1.80;;;23.40;52.60;;;;;;3111970;28;20073;-45
2023/12/12 07:15:57;;;;;;;5.53;2.10;;;23.40;52.60;;;;;;3111448;28;20046;-43
2023/12/12 07:17:28;;;;;;;3.65;2.30;;;23.40;52.30;;;;;;3111688;28;20054;-43
2023/12/12 07:19:00;;;;;;;7.07;2.40;;;23.50;52.20;;;;;;3111788;28;20046;-43
2023/12/12 07:20:30;;;;;;;2.80;2.10;;;23.50;52.20;;;;;;3112005;28;20045;-44
2023/12/12 07:22:02;;;;;;;4.80;2.28;;;23.50;52.40;;;;;;3111058;28;20054;-47
2023/12/12 07:23:34;;;;;;;3.35;2.03;;;23.50;52.20;;;;;;3108797;28;20046;-43
2023/12/12 07:25:06;;;;;;;5.60;1.80;;;23.60;51.90;;;;;;3111675;28;20504;-45
2023/12/12 07:26:42;;;;;;;3.50;2.15;;;23.60;51.70;;;;;;3111068;28;20092;-43
2023/12/12 07:28:14;;;;;;;4.40;2.40;;;23.60;51.60;;;;;;3110401;28;20404;-43
2023/12/12 07:29:45;;;;;;;4.32;2.50;;;23.70;51.50;;;;;;3110855;28;20052;-43
2023/12/12 07:31:16;;;;;;;6.18;2.10;;;23.60;51.70;;;;;;3107054;28;20038;-43
2023/12/12 07:32:47;;;;;;;4.60;2.05;;;23.60;51.70;;;;;;3106222;28;20054;-44
2023/12/12 07:34:18;;;;;;;3.92;2.28;;;23.50;51.70;;;;;;3111754;28;20046;-44
2023/12/12 07:35:49;;;;;;;4.95;1.90;;;23.50;51.80;;;;;;3109085;28;20050;-43
2023/12/12 07:37:21;;;;;;;4.50;2.47;;;23.50;51.60;;;;;;3108658;28;20080;-43
2023/12/12 07:38:53;;;;;;;3.42;1.83;;;23.50;51.80;;;;;;3111265;28;20054;-43
2023/12/12 07:40:24;;;;;;;3.92;2.17;;;23.30;51.80;;;;;;3108671;28;20546;-43
2023/12/12 07:41:57;;;;;;;3.30;2.05;;;23.40;51.70;;;;;;3111321;28;20107;-45
2023/12/12 07:43:28;;;;;;;3.55;1.88;;;23.30;51.70;;;;;;3110832;28;20052;-43
2023/12/12 07:45:00;;;;;;;5.50;2.00;;;23.40;51.50;;;;;;3111473;28;20045;-43
2023/12/12 07:46:36;;;;;;;3.28;1.90;;;23.30;51.50;;;;;;3111224;28;20054;-43
2023/12/12 07:48:07;;;;;;;2.42;1.80;;;23.30;51.70;;;;;;3107895;28;20519;-47
2023/12/12 07:49:38;;;;;;;4.45;2.45;;;23.20;52.00;;;;;;3109606;28;20064;-43
2023/12/12 07:51:11;;;;;;;4.70;2.13;;;23.20;52.10;;;;;;3109540;28;20412;-44
2023/12/12 07:52:41;;;;;;;3.22;2.17;;;23.20;52.10;;;;;;3110147;28;20057;-45
2023/12/12 07:54:13;;;;;;;2.33;2.08;;;23.20;51.90;;;;;;3110617;28;20061;-43
2023/12/12 07:55:44;;;;;;;3.90;1.92;;;23.10;52.10;;;;;;3109982;28;20412;-43
2023/12/12 07:57:17;;;;;;;3.65;1.90;;;23.10;52.10;;;;;;3111309;28;20049;-44